Time;durP1;ratioP1;P1;durP2;ratioP2;P2;SDS_P1;SDS_P2;PMS_P1;PMS_P2;Temp;Humidity;BMP_temperature;BMP_pressure;BME280_temperature;BME280_humidity;BME280_pressure;Samples;Min_cycle;Max_cycle;Signal;HPM_P1;HPM_P2
2023/09/02 00:02:22;;;;;;;10.10;3.97;;;13.50;99.90;;;;;;5057829;28;20449;-89
2023/09/02 00:04:48;;;;;;;9.68;4.00;;;13.50;99.90;;;;;;5029655;28;20037;-89
2023/09/02 00:07:14;;;;;;;8.68;4.30;;;13.50;99.90;;;;;;5019964;28;20600;-89
2023/09/02 00:09:39;;;;;;;8.27;4.05;;;13.40;99.90;;;;;;5020020;28;20060;-88
2023/09/02 00:12:06;;;;;;;8.95;4.03;;;13.40;99.90;;;;;;5008656;28;20123;-87
2023/09/02 00:14:32;;;;;;;8.30;4.05;;;13.50;99.90;;;;;;5022794;28;20045;-88
2023/09/02 00:16:58;;;;;;;7.45;3.45;;;13.40;99.90;;;;;;5040318;28;20119;-88
2023/09/02 00:19:24;;;;;;;7.43;3.65;;;13.50;99.90;;;;;;5049114;28;20175;-88
2023/09/02 00:21:50;;;;;;;9.07;3.95;;;13.40;99.90;;;;;;5027327;28;21560;-89
2023/09/02 00:24:15;;;;;;;9.82;4.03;;;13.50;99.90;;;;;;5022700;28;20032;-87
2023/09/02 00:26:42;;;;;;;9.40;4.40;;;13.50;99.90;;;;;;5023193;28;20116;-88
2023/09/02 00:29:08;;;;;;;8.93;4.30;;;13.50;99.90;;;;;;5043614;28;20040;-88
2023/09/02 00:31:33;;;;;;;9.40;4.35;;;13.50;99.90;;;;;;5023976;28;20059;-89
2023/09/02 00:33:59;;;;;;;8.52;4.07;;;13.50;99.90;;;;;;5019985;28;20094;-87
2023/09/02 00:36:26;;;;;;;9.68;4.60;;;13.50;99.90;;;;;;5038158;28;20060;-87
2023/09/02 00:38:52;;;;;;;9.55;4.32;;;13.40;99.90;;;;;;5040215;28;20648;-89
2023/09/02 00:41:31;;;;;;;8.13;3.90;;;13.50;99.90;;;;;;5023418;28;20072;-89
2023/09/02 00:43:59;;;;;;;8.07;4.07;;;13.40;99.90;;;;;;5034404;28;20055;-87
2023/09/02 00:46:24;;;;;;;8.48;4.25;;;13.50;99.90;;;;;;5035737;28;20127;-88
2023/09/02 00:48:50;;;;;;;8.82;4.03;;;13.50;99.90;;;;;;5024122;28;20559;-88
2023/09/02 00:51:16;;;;;;;8.20;4.05;;;13.50;99.90;;;;;;5037986;28;20036;-88
2023/09/02 00:53:44;;;;;;;8.80;4.35;;;13.40;99.90;;;;;;5034906;28;20132;-88
2023/09/02 00:56:15;;;;;;;9.60;4.35;;;13.40;99.90;;;;;;5038305;28;20045;-89
2023/09/02 00:58:41;;;;;;;9.30;4.07;;;13.40;99.90;;;;;;5035659;28;20029;-88
2023/09/02 01:01:08;;;;;;;8.68;4.18;;;13.40;99.90;;;;;;5059115;28;20087;-88
2023/09/02 01:03:37;;;;;;;8.95;4.28;;;13.40;99.90;;;;;;5032520;28;20431;-88
2023/09/02 01:06:04;;;;;;;9.63;4.60;;;13.40;99.90;;;;;;5017778;28;20044;-89
2023/09/02 01:08:31;;;;;;;8.93;4.53;;;13.30;99.90;;;;;;5026869;28;20417;-88
2023/09/02 01:11:00;;;;;;;9.32;4.45;;;13.30;99.90;;;;;;5042391;28;20040;-88
2023/09/02 01:13:28;;;;;;;9.20;4.25;;;13.30;99.90;;;;;;5018527;28;20041;-88
2023/09/02 01:15:54;;;;;;;9.05;4.43;;;13.30;99.90;;;;;;5041338;28;20037;-89
2023/09/02 01:18:30;;;;;;;9.68;4.50;;;13.30;99.90;;;;;;5045574;28;20033;-89
2023/09/02 01:21:20;;;;;;;10.52;4.47;;;13.20;99.90;;;;;;5058283;28;20041;-88
2023/09/02 01:24:10;;;;;;;8.77;4.43;;;13.20;99.90;;;;;;5035911;28;20052;-89
2023/09/02 01:27:02;;;;;;;9.45;4.18;;;13.10;99.90;;;;;;5039122;28;20051;-88
2023/09/02 01:29:32;;;;;;;8.52;3.97;;;13.10;99.90;;;;;;5046747;28;20401;-89
2023/09/02 01:32:00;;;;;;;9.48;4.55;;;13.10;99.90;;;;;;5057531;28;20067;-89
2023/09/02 01:34:28;;;;;;;13.75;5.13;;;13.10;99.90;;;;;;5040267;28;20122;-88
2023/09/02 01:36:55;;;;;;;8.98;4.07;;;13.10;99.90;;;;;;5020349;28;20043;-88
2023/09/02 01:39:25;;;;;;;8.68;4.20;;;13.10;99.90;;;;;;5036743;28;20141;-87
2023/09/02 01:41:52;;;;;;;9.13;4.13;;;13.10;99.90;;;;;;5027752;28;20028;-87
2023/09/02 01:44:18;;;;;;;8.77;3.97;;;13.10;99.90;;;;;;5054821;28;20040;-87
2023/09/02 01:46:46;;;;;;;9.02;4.50;;;13.10;99.90;;;;;;5024924;28;20080;-88
2023/09/02 01:49:12;;;;;;;8.10;3.90;;;13.10;99.90;;;;;;5041520;28;20650;-89
2023/09/02 01:51:40;;;;;;;8.57;3.85;;;13.00;99.90;;;;;;5020647;28;20044;-88
2023/09/02 01:54:06;;;;;;;9.50;4.15;;;13.00;99.90;;;;;;5014582;28;20060;-88
2023/09/02 01:56:32;;;;;;;8.88;4.22;;;13.00;99.90;;;;;;5035048;28;20439;-88
2023/09/02 01:58:59;;;;;;;9.20;4.00;;;13.00;99.90;;;;;;5061502;28;20033;-88
2023/09/02 02:01:24;;;;;;;8.40;3.97;;;13.00;99.90;;;;;;5050135;28;20037;-88
2023/09/02 02:03:58;;;;;;;8.15;3.90;;;13.00;99.90;;;;;;5026406;28;20101;-88
2023/09/02 02:06:24;;;;;;;8.30;4.10;;;12.90;99.90;;;;;;5043410;28;20041;-88
2023/09/02 02:08:55;;;;;;;8.27;3.65;;;12.90;99.90;;;;;;5027523;28;20119;-88
2023/09/02 02:11:24;;;;;;;8.60;3.88;;;12.90;99.90;;;;;;5041533;28;20099;-88
2023/09/02 02:13:49;;;;;;;8.77;4.57;;;12.90;99.90;;;;;;5061030;28;20037;-88
2023/09/02 02:16:15;;;;;;;8.90;4.32;;;12.80;99.90;;;;;;5026336;28;20048;-89
2023/09/02 02:18:41;;;;;;;8.60;4.18;;;12.80;99.90;;;;;;5020754;28;20040;-89
2023/09/02 02:21:07;;;;;;;7.88;3.83;;;12.80;99.90;;;;;;5052003;28;20032;-89
2023/09/02 02:23:33;;;;;;;8.32;4.30;;;12.80;99.90;;;;;;5027485;28;20115;-88
2023/09/02 02:26:01;;;;;;;8.52;4.10;;;12.80;99.90;;;;;;5059523;28;20136;-89
2023/09/02 02:28:27;;;;;;;8.30;3.83;;;12.80;99.90;;;;;;5061563;28;20413;-89
2023/09/02 02:30:53;;;;;;;8.30;3.88;;;12.80;99.90;;;;;;5046283;28;20041;-89
2023/09/02 02:33:18;;;;;;;8.35;4.00;;;12.80;99.90;;;;;;5030225;28;20044;-89
2023/09/02 02:35:44;;;;;;;7.95;3.60;;;12.80;99.90;;;;;;5023258;28;20033;-89
2023/09/02 02:38:10;;;;;;;8.68;3.72;;;12.70;99.90;;;;;;5024838;28;20041;-89
2023/09/02 02:40:35;;;;;;;8.60;3.72;;;12.70;99.90;;;;;;5028495;28;20037;-89
2023/09/02 02:43:02;;;;;;;8.38;3.80;;;12.70;99.90;;;;;;5024713;28;20037;-89
2023/09/02 02:45:28;;;;;;;9.13;4.40;;;12.70;99.90;;;;;;5017624;28;20048;-88
2023/09/02 02:47:54;;;;;;;8.90;3.95;;;12.60;99.90;;;;;;5041346;28;20429;-88
2023/09/02 02:50:20;;;;;;;8.07;3.85;;;12.60;99.90;;;;;;5036200;28;20045;-88
2023/09/02 02:52:46;;;;;;;8.60;4.03;;;12.60;99.90;;;;;;5048513;28;20106;-88
2023/09/02 02:55:12;;;;;;;10.65;4.30;;;12.70;99.90;;;;;;5063798;28;20490;-88
2023/09/02 02:57:39;;;;;;;9.70;4.15;;;12.70;99.90;;;;;;5030492;28;20033;-89
2023/09/02 03:00:07;;;;;;;9.00;4.13;;;12.60;99.90;;;;;;5058661;28;20068;-89
2023/09/02 03:02:33;;;;;;;8.43;4.05;;;12.60;99.90;;;;;;5048317;28;20036;-88
2023/09/02 03:04:58;;;;;;;8.00;4.03;;;12.60;99.90;;;;;;5024844;28;20102;-89
2023/09/02 03:07:24;;;;;;;9.20;4.20;;;12.60;99.90;;;;;;5045069;28;20508;-89
2023/09/02 03:09:50;;;;;;;8.50;4.05;;;12.50;99.90;;;;;;5034774;28;20109;-89
2023/09/02 03:12:15;;;;;;;9.30;4.00;;;12.60;99.90;;;;;;5023883;28;20037;-89
2023/09/02 03:14:42;;;;;;;9.13;4.18;;;12.50;99.90;;;;;;5024997;28;20033;-89
2023/09/02 03:17:07;;;;;;;9.75;4.80;;;12.50;99.90;;;;;;5017294;28;20040;-89
2023/09/02 03:19:33;;;;;;;8.45;4.40;;;12.50;99.90;;;;;;5040959;28;20066;-89
2023/09/02 03:21:59;;;;;;;9.18;4.70;;;12.50;99.90;;;;;;5044126;28;20036;-89
2023/09/02 03:24:25;;;;;;;9.43;4.53;;;12.50;99.90;;;;;;5019365;28;20073;-88
2023/09/02 03:26:50;;;;;;;8.45;4.20;;;12.50;99.90;;;;;;5039786;28;20041;-88
2023/09/02 03:29:16;;;;;;;8.73;4.50;;;12.50;99.90;;;;;;5026454;28;20974;-89
2023/09/02 03:31:41;;;;;;;8.98;4.35;;;12.60;99.90;;;;;;5027006;28;20045;-89
2023/09/02 03:34:07;;;;;;;8.73;3.92;;;12.60;99.90;;;;;;5044198;28;20406;-89
2023/09/02 03:36:33;;;;;;;8.13;3.67;;;12.60;99.90;;;;;;5026979;28;20037;-89
2023/09/02 03:38:58;;;;;;;7.68;3.47;;;12.50;99.90;;;;;;5024782;28;20032;-89
2023/09/02 03:41:24;;;;;;;7.85;3.40;;;12.60;99.90;;;;;;5024321;28;20036;-89
2023/09/02 03:43:50;;;;;;;7.25;3.10;;;12.50;99.90;;;;;;5022947;28;20562;-88
2023/09/02 03:46:16;;;;;;;8.10;3.20;;;12.50;99.90;;;;;;5040601;28;20048;-90
2023/09/02 03:48:42;;;;;;;7.15;2.80;;;12.50;99.90;;;;;;5028186;28;20607;-89
2023/09/02 03:51:12;;;;;;;6.55;2.80;;;12.50;99.90;;;;;;5021527;28;20195;-89
2023/09/02 03:53:41;;;;;;;7.30;2.90;;;12.60;99.90;;;;;;5041149;28;20037;-88
2023/09/02 03:56:07;;;;;;;6.50;2.67;;;12.60;99.90;;;;;;5024624;28;20056;-89
2023/09/02 03:58:33;;;;;;;7.38;2.90;;;12.60;99.90;;;;;;5026363;28;20036;-89
2023/09/02 04:00:59;;;;;;;6.82;2.78;;;12.60;99.90;;;;;;5024992;28;20029;-88
2023/09/02 04:03:26;;;;;;;7.30;3.00;;;12.60;99.90;;;;;;5020317;28;21584;-89
2023/09/02 04:05:52;;;;;;;7.53;3.35;;;12.60;99.90;;;;;;5065519;28;20043;-88
2023/09/02 04:08:21;;;;;;;6.75;2.92;;;12.60;99.90;;;;;;5052068;28;20121;-88
2023/09/02 04:10:52;;;;;;;8.43;3.20;;;12.70;99.90;;;;;;5044047;28;20132;-89
2023/09/02 04:13:22;;;;;;;7.40;3.40;;;12.60;99.90;;;;;;5059108;28;20052;-89
2023/09/02 04:15:47;;;;;;;7.93;3.58;;;12.70;99.90;;;;;;5037223;28;20442;-88
2023/09/02 04:18:13;;;;;;;8.40;3.42;;;12.70;99.90;;;;;;5036052;28;20075;-88
2023/09/02 04:20:39;;;;;;;7.50;3.38;;;12.70;99.90;;;;;;5037494;28;20485;-88
2023/09/02 04:23:05;;;;;;;8.23;3.55;;;12.70;99.90;;;;;;5018653;28;20486;-88
2023/09/02 04:25:31;;;;;;;8.00;3.65;;;12.80;99.90;;;;;;5040421;28;20110;-87
2023/09/02 04:27:57;;;;;;;7.80;3.50;;;12.70;99.90;;;;;;5047850;28;20822;-89
2023/09/02 04:30:24;;;;;;;8.32;3.88;;;12.70;99.90;;;;;;5043147;28;20037;-89
2023/09/02 04:32:50;;;;;;;8.40;4.05;;;12.80;99.90;;;;;;5038804;28;20406;-88
2023/09/02 04:35:16;;;;;;;8.10;3.85;;;12.80;99.90;;;;;;4997858;28;20079;-89
2023/09/02 04:37:42;;;;;;;9.20;4.40;;;12.80;99.90;;;;;;5030712;28;20462;-88
2023/09/02 04:40:09;;;;;;;8.25;4.10;;;12.80;99.90;;;;;;5046373;28;20347;-89
2023/09/02 04:42:35;;;;;;;9.25;4.38;;;12.80;99.90;;;;;;5041436;28;20045;-90
2023/09/02 04:45:00;;;;;;;8.73;4.50;;;12.90;99.90;;;;;;5021457;28;20056;-88
2023/09/02 04:47:26;;;;;;;8.70;4.20;;;13.40;99.90;;;;;;5023350;28;20044;-88
2023/09/02 04:49:52;;;;;;;10.07;4.60;;;12.90;99.90;;;;;;5026569;28;20043;-88
2023/09/02 04:52:19;;;;;;;9.10;4.75;;;12.90;99.90;;;;;;5035227;28;20045;-88
2023/09/02 04:54:45;;;;;;;9.13;4.80;;;12.90;99.90;;;;;;5025810;28;20508;-88
2023/09/02 04:57:11;;;;;;;10.75;5.40;;;12.90;99.90;;;;;;5020888;28;20127;-88
2023/09/02 04:59:38;;;;;;;10.13;5.70;;;12.90;99.90;;;;;;5032653;28;20048;-88
2023/09/02 05:02:05;;;;;;;11.13;5.75;;;12.90;99.90;;;;;;5049110;28;20107;-88
2023/09/02 05:04:30;;;;;;;10.48;5.68;;;12.90;99.90;;;;;;5040287;28;20102;-88
2023/09/02 05:06:56;;;;;;;10.68;5.82;;;13.00;99.90;;;;;;5026470;28;20045;-88
2023/09/02 05:09:22;;;;;;;11.25;5.70;;;13.00;99.90;;;;;;5025983;28;20482;-88
2023/09/02 05:11:48;;;;;;;10.75;5.80;;;13.00;99.90;;;;;;5001142;28;20088;-88
2023/09/02 05:14:14;;;;;;;11.07;5.60;;;13.00;99.90;;;;;;5020519;28;20132;-89
2023/09/02 05:16:40;;;;;;;10.85;5.65;;;13.00;99.90;;;;;;5038225;28;20131;-89
2023/09/02 05:19:07;;;;;;;9.70;5.43;;;13.00;99.90;;;;;;5020039;28;20043;-89
2023/09/02 05:21:33;;;;;;;9.77;5.15;;;13.10;99.90;;;;;;5038787;28;20033;-88
2023/09/02 05:23:59;;;;;;;9.00;4.82;;;13.10;99.90;;;;;;5005687;28;20119;-88
2023/09/02 05:26:25;;;;;;;10.55;5.53;;;13.10;99.90;;;;;;5020653;28;20605;-88
2023/09/02 05:28:50;;;;;;;10.50;5.25;;;13.10;99.90;;;;;;5008263;28;20038;-88
2023/09/02 05:31:16;;;;;;;11.23;5.90;;;13.10;99.90;;;;;;5026012;28;20124;-88
2023/09/02 05:33:42;;;;;;;10.52;6.10;;;13.10;99.90;;;;;;5002758;28;20508;-87
2023/09/02 05:36:08;;;;;;;9.98;5.88;;;12.50;99.90;;;;;;5006479;28;20037;-88
2023/09/02 05:38:34;;;;;;;10.60;6.20;;;13.10;99.90;;;;;;5007174;28;20040;-88
2023/09/02 05:40:59;;;;;;;12.13;6.60;;;13.00;99.90;;;;;;5013854;28;20357;-88
2023/09/02 05:43:26;;;;;;;11.13;5.60;;;13.10;99.90;;;;;;5027660;28;20045;-88
2023/09/02 05:45:51;;;;;;;10.50;5.65;;;13.00;99.90;;;;;;5010821;28;20456;-88
2023/09/02 05:48:17;;;;;;;10.38;6.07;;;13.10;99.90;;;;;;5011003;28;20040;-88
2023/09/02 05:50:43;;;;;;;10.13;5.70;;;13.10;99.90;;;;;;5013842;28;20116;-89
2023/09/02 05:53:08;;;;;;;11.25;5.70;;;13.20;99.90;;;;;;5024609;28;20478;-88
2023/09/02 05:55:34;;;;;;;10.27;5.82;;;13.20;99.90;;;;;;5026412;28;20285;-88
2023/09/02 05:58:00;;;;;;;10.45;6.30;;;13.20;99.90;;;;;;5030613;28;20044;-89
2023/09/02 06:00:25;;;;;;;11.30;6.18;;;13.30;99.90;;;;;;5017043;28;20635;-89
2023/09/02 06:02:51;;;;;;;12.57;6.65;;;13.30;99.90;;;;;;5028600;28;20037;-88
2023/09/02 06:05:17;;;;;;;11.52;6.47;;;13.40;99.90;;;;;;5022845;28;20039;-88
2023/09/02 06:07:43;;;;;;;12.15;6.88;;;13.50;99.90;;;;;;5026512;28;20048;-89
2023/09/02 06:10:09;;;;;;;12.18;6.82;;;13.60;99.90;;;;;;5026131;28;20052;-88
2023/09/02 06:12:34;;;;;;;11.65;6.88;;;13.70;99.90;;;;;;5046957;28;20660;-89
2023/09/02 06:15:01;;;;;;;11.73;7.05;;;13.70;99.90;;;;;;5016427;28;20120;-89
2023/09/02 06:17:30;;;;;;;12.82;7.03;;;13.80;99.90;;;;;;5046850;28;20051;-89
2023/09/02 06:19:58;;;;;;;13.10;6.85;;;13.90;99.90;;;;;;5040724;28;20102;-89
2023/09/02 06:22:23;;;;;;;11.82;7.05;;;13.90;99.90;;;;;;5043466;28;20044;-89
2023/09/02 06:24:49;;;;;;;12.60;7.70;;;14.10;99.90;;;;;;5043956;28;20045;-88
2023/09/02 06:27:15;;;;;;;14.00;7.88;;;14.10;99.90;;;;;;5026226;28;20068;-89
2023/09/02 06:29:43;;;;;;;13.15;8.27;;;14.20;99.90;;;;;;5037988;28;20497;-89
2023/09/02 06:32:10;;;;;;;13.23;7.55;;;14.30;99.90;;;;;;5024295;28;20570;-88
2023/09/02 06:34:35;;;;;;;13.43;8.13;;;14.40;99.90;;;;;;5018477;28;20857;-89
2023/09/02 06:37:02;;;;;;;13.68;8.07;;;14.40;99.90;;;;;;5022688;28;20124;-89
2023/09/02 06:39:27;;;;;;;12.48;7.05;;;14.50;99.90;;;;;;5027654;28;20048;-89
2023/09/02 06:41:53;;;;;;;12.75;7.32;;;14.60;99.90;;;;;;5025769;28;20550;-88
2023/09/02 06:44:19;;;;;;;12.88;7.28;;;14.70;99.90;;;;;;5016940;28;20064;-89
2023/09/02 06:46:44;;;;;;;12.30;6.78;;;14.80;99.90;;;;;;5038538;28;20043;-90
2023/09/02 06:49:10;;;;;;;12.10;6.82;;;14.80;99.90;;;;;;5026962;28;20065;-89
2023/09/02 06:51:36;;;;;;;13.73;7.70;;;14.90;99.90;;;;;;5017878;28;20126;-90
2023/09/02 06:54:02;;;;;;;13.35;7.32;;;15.00;99.90;;;;;;5045183;28;20152;-88
2023/09/02 06:56:27;;;;;;;13.82;8.40;;;15.10;99.90;;;;;;5058710;28;20043;-88
2023/09/02 06:58:53;;;;;;;13.05;7.28;;;15.10;99.90;;;;;;5026742;28;20040;-88
2023/09/02 07:01:22;;;;;;;12.98;7.90;;;15.20;99.90;;;;;;5016978;28;20036;-89
2023/09/02 07:03:48;;;;;;;12.57;7.85;;;15.30;99.90;;;;;;5048986;28;20040;-88
2023/09/02 07:06:15;;;;;;;12.50;8.07;;;15.40;99.90;;;;;;5063264;28;20378;-89
2023/09/02 07:08:42;;;;;;;13.50;8.15;;;15.50;99.90;;;;;;5045079;28;20037;-89
2023/09/02 07:11:11;;;;;;;14.00;8.60;;;15.60;99.90;;;;;;5043291;28;20056;-89
2023/09/02 07:13:38;;;;;;;14.15;8.80;;;15.70;99.90;;;;;;5022250;28;20041;-88
2023/09/02 07:16:05;;;;;;;14.73;8.75;;;15.90;99.90;;;;;;5044093;28;20029;-89
2023/09/02 07:18:31;;;;;;;16.90;8.75;;;16.00;99.90;;;;;;5046678;28;20051;-88
2023/09/02 07:21:01;;;;;;;15.40;9.68;;;16.10;99.90;;;;;;5022535;28;20477;-89
2023/09/02 07:23:28;;;;;;;14.85;9.88;;;16.20;99.90;;;;;;5057695;28;20036;-89
2023/09/02 07:25:56;;;;;;;15.73;9.43;;;16.30;99.90;;;;;;5038872;28;20755;-88
2023/09/02 07:28:22;;;;;;;13.82;8.98;;;16.40;99.90;;;;;;5042146;28;20048;-88
2023/09/02 07:30:48;;;;;;;14.25;9.05;;;16.50;99.90;;;;;;5041223;28;20036;-89
2023/09/02 07:33:13;;;;;;;14.90;9.25;;;16.60;99.90;;;;;;5061173;28;20047;-89
2023/09/02 07:35:39;;;;;;;16.20;9.60;;;16.70;99.90;;;;;;5042212;28;20045;-88
2023/09/02 07:38:08;;;;;;;14.95;9.88;;;16.80;99.90;;;;;;5040491;28;20334;-89
2023/09/02 07:40:34;;;;;;;15.68;10.02;;;16.90;99.90;;;;;;5039177;28;20032;-90
2023/09/02 07:43:02;;;;;;;17.33;10.68;;;17.10;99.90;;;;;;5024215;28;20597;-89
2023/09/02 07:45:28;;;;;;;17.05;11.20;;;17.20;99.90;;;;;;5029609;28;20447;-89
2023/09/02 07:47:54;;;;;;;15.18;10.00;;;17.20;99.90;;;;;;5034902;28;20085;-88
2023/09/02 07:50:20;;;;;;;16.48;10.48;;;17.30;99.90;;;;;;5022402;28;20041;-89
2023/09/02 07:52:47;;;;;;;16.73;11.10;;;17.50;99.90;;;;;;5053792;28;20142;-89
2023/09/02 07:55:13;;;;;;;14.82;9.93;;;17.60;99.90;;;;;;5041321;28;20060;-89
2023/09/02 07:57:39;;;;;;;15.45;10.35;;;17.70;99.90;;;;;;5035825;28;20056;-89
2023/09/02 08:00:07;;;;;;;15.20;10.20;;;17.80;99.90;;;;;;5055532;28;20070;-89
2023/09/02 08:02:33;;;;;;;15.55;10.70;;;17.90;99.90;;;;;;5030109;28;20036;-88
2023/09/02 08:04:58;;;;;;;16.48;9.18;;;18.00;99.90;;;;;;5017800;28;20037;-89
2023/09/02 08:07:24;;;;;;;14.65;9.32;;;18.20;99.90;;;;;;5029430;28;20041;-88
2023/09/02 08:09:50;;;;;;;15.32;9.25;;;18.30;99.90;;;;;;5029645;28;20609;-89
2023/09/02 08:12:16;;;;;;;14.25;9.25;;;18.30;99.90;;;;;;5031140;28;20048;-88
2023/09/02 08:14:42;;;;;;;14.13;9.40;;;18.40;99.90;;;;;;5034059;28;20186;-89
2023/09/02 08:17:08;;;;;;;13.60;8.43;;;18.50;99.90;;;;;;5030502;28;20032;-88
2023/09/02 08:19:33;;;;;;;13.65;8.55;;;18.60;99.90;;;;;;5019780;28;20470;-89
2023/09/02 08:21:59;;;;;;;13.95;8.68;;;18.70;99.90;;;;;;5032764;28;20113;-89
2023/09/02 08:24:25;;;;;;;12.95;7.63;;;18.80;99.90;;;;;;5019879;28;20437;-89
2023/09/02 08:26:51;;;;;;;14.85;7.90;;;18.80;99.90;;;;;;5045142;28;20116;-90
2023/09/02 08:29:16;;;;;;;13.32;7.35;;;18.90;99.90;;;;;;5048064;28;20416;-89
2023/09/02 08:31:42;;;;;;;12.50;7.80;;;19.00;99.90;;;;;;5048058;28;20055;-89
2023/09/02 08:34:08;;;;;;;12.50;7.07;;;19.10;99.90;;;;;;5046612;28;20552;-89
2023/09/02 08:36:34;;;;;;;14.75;7.63;;;19.20;99.90;;;;;;5041958;28;20111;-89
2023/09/02 08:38:59;;;;;;;13.02;7.82;;;19.30;99.90;;;;;;5034777;28;20104;-89
2023/09/02 08:41:29;;;;;;;12.63;7.57;;;19.30;99.90;;;;;;5036089;28;20088;-89
2023/09/02 08:43:56;;;;;;;13.60;7.20;;;19.40;99.90;;;;;;5031403;28;20481;-89
2023/09/02 08:46:26;;;;;;;13.23;7.55;;;19.50;99.90;;;;;;5062775;28;20036;-89
2023/09/02 08:48:55;;;;;;;12.55;7.32;;;19.50;99.90;;;;;;5042710;28;20165;-89
2023/09/02 08:51:22;;;;;;;12.52;7.30;;;19.50;99.90;;;;;;5058007;28;20035;-90
2023/09/02 08:53:50;;;;;;;13.05;7.13;;;19.60;99.90;;;;;;5032026;28;20599;-90
2023/09/02 08:56:16;;;;;;;12.77;7.18;;;19.60;99.90;;;;;;5055775;28;20051;-88
2023/09/02 08:58:42;;;;;;;12.30;7.00;;;19.60;99.90;;;;;;5029856;28;20029;-89
2023/09/02 09:01:09;;;;;;;14.88;7.32;;;19.70;99.90;;;;;;5042209;28;20040;-89
2023/09/02 09:03:38;;;;;;;12.20;6.88;;;19.70;99.90;;;;;;5028985;28;20537;-89
2023/09/02 09:06:08;;;;;;;14.10;6.43;;;19.80;99.90;;;;;;5065368;28;20044;-89
2023/09/02 09:08:35;;;;;;;11.25;6.25;;;19.40;99.90;;;;;;5034171;28;20051;-89
2023/09/02 09:11:02;;;;;;;12.48;6.78;;;19.90;99.90;;;;;;5031316;28;20088;-88
2023/09/02 09:13:29;;;;;;;12.20;6.10;;;20.00;99.90;;;;;;5025917;28;20037;-89
2023/09/02 09:15:57;;;;;;;11.15;5.93;;;20.00;99.90;;;;;;5033112;28;20036;-89
2023/09/02 09:18:23;;;;;;;11.63;5.68;;;20.00;99.90;;;;;;5043971;28;20040;-90
2023/09/02 09:20:49;;;;;;;11.85;5.82;;;20.10;99.90;;;;;;5024135;28;20622;-91
2023/09/02 09:23:15;;;;;;;12.25;6.15;;;20.10;99.90;;;;;;5030315;28;20036;-90
2023/09/02 09:25:42;;;;;;;10.82;5.82;;;20.20;99.90;;;;;;5018480;28;20039;-91
2023/09/02 09:28:12;;;;;;;12.02;5.80;;;20.30;99.90;;;;;;5041120;28;20451;-91
2023/09/02 09:30:38;;;;;;;11.35;6.00;;;20.40;99.90;;;;;;5024872;28;20036;-91
2023/09/02 09:33:05;;;;;;;10.32;5.35;;;20.50;99.90;;;;;;5026471;28;20094;-91
2023/09/02 09:35:35;;;;;;;11.85;5.18;;;20.40;99.90;;;;;;5039380;28;20032;-91
2023/09/02 09:38:01;;;;;;;11.07;4.75;;;20.40;99.90;;;;;;5034379;28;20398;-91
2023/09/02 09:40:38;;;;;;;10.65;5.50;;;20.30;99.90;;;;;;5031399;28;20043;-90
2023/09/02 09:43:17;;;;;;;11.95;5.93;;;20.40;99.90;;;;;;5016608;28;20032;-91
2023/09/02 09:45:50;;;;;;;11.50;5.88;;;20.20;99.90;;;;;;5037680;28;20064;-91
2023/09/02 09:48:16;;;;;;;12.68;5.72;;;20.10;99.90;;;;;;5029787;28;20044;-91
2023/09/02 09:50:41;;;;;;;11.40;5.90;;;20.10;99.90;;;;;;5050387;28;20028;-91
2023/09/02 09:53:09;;;;;;;11.68;5.53;;;20.20;99.90;;;;;;5026948;28;20086;-90
2023/09/02 09:55:36;;;;;;;10.52;5.50;;;20.40;99.90;;;;;;5033323;28;20035;-90
2023/09/02 09:58:03;;;;;;;11.52;5.60;;;20.40;99.90;;;;;;5030346;28;20059;-91
2023/09/02 10:00:29;;;;;;;11.55;5.22;;;20.50;99.90;;;;;;5047557;28;20036;-91
2023/09/02 10:02:56;;;;;;;10.23;4.90;;;20.80;99.90;;;;;;5031815;28;20043;-91
2023/09/02 10:05:30;;;;;;;10.85;4.95;;;20.90;99.90;;;;;;5034043;28;20496;-91
2023/09/02 10:08:00;;;;;;;10.77;5.10;;;20.90;99.90;;;;;;5036776;28;20123;-91
2023/09/02 10:10:31;;;;;;;10.70;5.78;;;21.30;99.90;;;;;;5055613;28;20250;-92
2023/09/02 10:12:58;;;;;;;12.30;5.15;;;21.00;99.90;;;;;;5041169;28;20036;-89
2023/09/02 10:15:26;;;;;;;11.15;5.22;;;21.10;99.90;;;;;;5029102;28;20040;-90
2023/09/02 10:17:57;;;;;;;10.10;4.60;;;21.20;99.90;;;;;;5042488;28;20046;-90
2023/09/02 10:20:28;;;;;;;10.05;5.03;;;21.30;99.90;;;;;;5033773;28;20116;-89
2023/09/02 10:22:57;;;;;;;10.25;5.15;;;21.40;99.90;;;;;;5031145;28;20442;-90
2023/09/02 10:25:29;;;;;;;10.70;5.13;;;22.30;99.90;;;;;;5037912;28;20189;-90
2023/09/02 10:28:05;;;;;;;10.13;4.68;;;21.50;99.90;;;;;;5040754;28;20136;-90
2023/09/02 10:30:48;;;;;;;10.02;4.68;;;21.50;99.90;;;;;;5039184;28;20044;-90
2023/09/02 10:33:17;;;;;;;10.00;4.50;;;21.50;99.90;;;;;;5041993;28;22768;-90
2023/09/02 10:35:50;;;;;;;10.68;4.75;;;21.60;99.90;;;;;;5042766;28;20056;-90
2023/09/02 10:38:20;;;;;;;10.93;5.05;;;21.70;99.90;;;;;;5039658;28;20202;-89
2023/09/02 10:40:56;;;;;;;12.07;5.03;;;21.80;99.90;;;;;;5048620;28;20493;-90
2023/09/02 10:43:23;;;;;;;9.02;4.10;;;21.80;99.90;;;;;;5057333;28;20048;-90
2023/09/02 10:45:49;;;;;;;9.27;4.70;;;22.00;99.90;;;;;;5042905;28;20058;-90
2023/09/02 10:48:15;;;;;;;8.77;4.20;;;22.00;99.90;;;;;;5033914;28;20463;-90
2023/09/02 10:50:41;;;;;;;8.95;4.10;;;22.10;99.90;;;;;;5031648;28;21456;-89
2023/09/02 10:53:07;;;;;;;11.93;4.47;;;22.10;99.90;;;;;;5067241;28;20120;-89
2023/09/02 10:55:53;;;;;;;9.32;4.32;;;22.00;99.90;;;;;;5033932;28;20480;-90
2023/09/02 10:58:18;;;;;;;10.32;4.25;;;22.00;99.90;;;;;;5062736;28;20554;-90
2023/09/02 11:00:46;;;;;;;12.90;4.93;;;22.00;99.90;;;;;;5026044;28;20036;-91
2023/09/02 11:03:32;;;;;;;8.95;4.30;;;21.90;99.90;;;;;;5044552;28;20597;-90
2023/09/02 11:06:06;;;;;;;9.25;4.30;;;21.70;99.90;;;;;;5036115;28;20032;-91
2023/09/02 11:08:51;;;;;;;9.27;4.70;;;21.50;99.90;;;;;;5037696;28;20044;-90
2023/09/02 11:11:19;;;;;;;10.40;4.95;;;21.40;99.90;;;;;;5057446;28;20079;-90
2023/09/02 11:14:06;;;;;;;9.18;4.65;;;21.40;99.90;;;;;;5024107;28;20036;-89
2023/09/02 11:16:33;;;;;;;12.27;4.70;;;21.50;99.90;;;;;;5055599;28;20066;-89
2023/09/02 11:19:00;;;;;;;9.55;4.10;;;21.50;99.90;;;;;;5042764;28;20494;-90
2023/09/02 11:21:42;;;;;;;9.00;4.30;;;21.70;99.90;;;;;;5041691;28;20045;-90
2023/09/02 11:24:25;;;;;;;9.00;3.45;;;21.80;99.90;;;;;;5040161;28;20044;-90
2023/09/02 11:26:58;;;;;;;8.52;3.60;;;21.80;99.90;;;;;;5012633;28;20073;-90
2023/09/02 11:29:29;;;;;;;8.10;3.80;;;21.80;99.90;;;;;;5041965;28;20036;-89
2023/09/02 11:32:03;;;;;;;9.95;4.15;;;22.30;99.90;;;;;;5041651;28;20076;-89
2023/09/02 11:34:30;;;;;;;9.65;3.47;;;21.90;99.90;;;;;;5040243;28;20094;-89
2023/09/02 11:37:00;;;;;;;8.43;3.67;;;21.90;99.90;;;;;;5028946;28;20530;-90
2023/09/02 11:39:30;;;;;;;9.80;3.55;;;21.80;99.90;;;;;;5042927;28;20033;-89
2023/09/02 11:42:12;;;;;;;8.20;3.60;;;21.70;99.90;;;;;;5034426;28;20032;-89
2023/09/02 11:44:38;;;;;;;8.43;3.63;;;21.70;99.90;;;;;;5037413;28;20041;-89
2023/09/02 11:47:05;;;;;;;8.52;3.53;;;21.80;99.90;;;;;;5059376;28;20131;-89
2023/09/02 11:49:31;;;;;;;7.28;3.13;;;21.80;99.90;;;;;;5042136;28;20041;-89
2023/09/02 11:51:58;;;;;;;7.75;3.28;;;22.10;99.90;;;;;;5037477;28;20088;-89
2023/09/02 11:54:24;;;;;;;10.43;3.35;;;22.00;99.90;;;;;;5025614;28;20080;-88
2023/09/02 11:57:00;;;;;;;8.23;2.97;;;22.20;99.90;;;;;;5025376;28;20130;-88
2023/09/02 11:59:26;;;;;;;8.90;3.50;;;22.30;99.90;;;;;;5018825;28;20512;-90
2023/09/02 12:02:15;;;;;;;8.85;3.45;;;22.30;99.90;;;;;;5026610;28;20095;-89
2023/09/02 12:04:44;;;;;;;8.60;3.67;;;22.10;99.90;;;;;;5023775;28;20037;-90
2023/09/02 12:07:10;;;;;;;8.75;3.50;;;22.00;99.90;;;;;;5038962;28;20444;-90
2023/09/02 12:09:37;;;;;;;8.55;3.63;;;21.50;99.90;;;;;;5033433;28;20045;-89
2023/09/02 12:12:03;;;;;;;8.15;3.30;;;21.60;99.90;;;;;;5027697;28;20053;-89
2023/09/02 12:14:30;;;;;;;8.38;3.50;;;21.40;99.90;;;;;;5039928;28;20123;-91
2023/09/02 12:16:59;;;;;;;9.50;4.05;;;21.50;99.90;;;;;;5044345;28;20112;-90
2023/09/02 12:19:25;;;;;;;9.52;3.60;;;21.40;99.90;;;;;;5019367;28;20132;-89
2023/09/02 12:21:52;;;;;;;8.13;3.70;;;21.40;99.90;;;;;;5054659;28;20037;-88
2023/09/02 12:24:18;;;;;;;8.90;3.70;;;21.50;99.90;;;;;;5044376;28;20044;-89
2023/09/02 12:26:48;;;;;;;8.55;3.45;;;21.50;99.90;;;;;;5018376;28;20051;-90
2023/09/02 12:29:18;;;;;;;8.02;3.28;;;21.70;99.90;;;;;;5038579;28;20040;-90
2023/09/02 12:31:56;;;;;;;8.88;3.22;;;21.80;99.90;;;;;;5032214;28;20458;-91
2023/09/02 12:34:23;;;;;;;7.65;2.78;;;21.70;99.90;;;;;;5039291;28;20047;-90
2023/09/02 12:36:48;;;;;;;8.00;3.03;;;21.50;99.90;;;;;;5043310;28;20043;-90
2023/09/02 12:39:32;;;;;;;8.43;3.33;;;21.50;99.90;;;;;;5020110;28;20033;-92
2023/09/02 12:42:00;;;;;;;9.32;3.45;;;21.50;99.90;;;;;;5025622;28;20040;-90
2023/09/02 12:44:26;;;;;;;8.27;3.10;;;21.40;99.90;;;;;;5040961;28;20777;-89